Time;durP1;ratioP1;P1;durP2;ratioP2;P2;SDS_P1;SDS_P2;PMS_P1;PMS_P2;Temp;Humidity;BMP_temperature;BMP_pressure;BME280_temperature;BME280_humidity;BME280_pressure;Samples;Min_cycle;Max_cycle;Signal;HPM_P1;HPM_P2
2023/10/28 00:00:44;;;;;;;;;;;9.30;99.90;;;;;;5083454;28;19927;-69
2023/10/28 00:03:12;;;;;;;;;;;9.30;99.90;;;;;;5083248;28;19920;-70
2023/10/28 00:05:38;;;;;;;;;;;9.30;99.90;;;;;;5082498;28;19951;-70
2023/10/28 00:08:05;;;;;;;;;;;9.30;99.90;;;;;;5082610;28;19920;-70
2023/10/28 00:10:32;;;;;;;;;;;9.40;99.90;;;;;;5083312;28;19958;-70
2023/10/28 00:13:00;;;;;;;;;;;9.30;99.90;;;;;;5082950;28;20000;-69
2023/10/28 00:15:27;;;;;;;;;;;9.40;99.90;;;;;;5083391;28;20107;-70
2023/10/28 00:17:53;;;;;;;;;;;9.40;99.90;;;;;;5082368;28;19951;-70
2023/10/28 00:20:21;;;;;;;;;;;9.40;99.90;;;;;;5083028;28;19959;-70
2023/10/28 00:22:49;;;;;;;;;;;9.40;99.90;;;;;;5083252;28;19927;-70
2023/10/28 00:25:16;;;;;;;;;;;9.40;99.90;;;;;;5083432;28;19963;-70
2023/10/28 00:27:43;;;;;;;;;;;9.40;99.90;;;;;;5082298;28;20162;-70
2023/10/28 00:30:10;;;;;;;;;;;9.40;99.90;;;;;;5082614;28;19963;-70
2023/10/28 00:32:37;;;;;;;;;;;9.40;99.90;;;;;;5081036;28;19959;-70
2023/10/28 00:35:04;;;;;;;;;;;9.30;99.90;;;;;;5082849;28;19932;-71
2023/10/28 00:37:32;;;;;;;;;;;9.30;99.90;;;;;;5082304;28;19988;-69
2023/10/28 00:39:59;;;;;;;;;;;9.40;99.90;;;;;;5074827;28;19921;-71
2023/10/28 00:42:26;;;;;;;;;;;9.40;99.90;;;;;;5082551;28;20164;-70
2023/10/28 00:44:54;;;;;;;;;;;9.30;99.90;;;;;;5086232;28;19980;-70
2023/10/28 00:47:22;;;;;;;;;;;9.40;99.90;;;;;;5086423;28;19991;-70
2023/10/28 00:49:49;;;;;;;;;;;9.40;99.90;;;;;;5086456;28;20056;-70
2023/10/28 00:52:17;;;;;;;;;;;9.40;99.90;;;;;;5086992;28;19984;-70
2023/10/28 00:54:47;;;;;;;;;;;9.40;99.90;;;;;;5086807;28;19966;-70
2023/10/28 00:57:14;;;;;;;;;;;9.40;99.90;;;;;;5086761;28;19921;-70
2023/10/28 00:59:41;;;;;;;;;;;9.40;99.90;;;;;;5086010;28;19959;-69
2023/10/28 01:02:09;;;;;;;;;;;9.50;99.90;;;;;;5086292;28;20206;-70
2023/10/28 01:04:35;;;;;;;;;;;9.50;99.90;;;;;;5085928;28;19928;-71
2023/10/28 01:07:02;;;;;;;;;;;9.50;99.90;;;;;;5086412;28;19920;-72
2023/10/28 01:09:29;;;;;;;;;;;9.40;99.90;;;;;;5086234;28;19987;-69
2023/10/28 01:11:57;;;;;;;;;;;9.40;99.90;;;;;;5086774;28;19920;-70
2023/10/28 01:14:24;;;;;;;;;;;9.40;99.90;;;;;;5086554;28;19964;-70
2023/10/28 01:16:50;;;;;;;;;;;9.40;99.90;;;;;;5086022;28;19927;-70
2023/10/28 01:19:17;;;;;;;;;;;9.40;99.90;;;;;;5085942;28;19984;-70
2023/10/28 01:21:45;;;;;;;;;;;9.40;99.90;;;;;;5086185;28;19999;-70
2023/10/28 01:24:11;;;;;;;;;;;9.40;99.90;;;;;;5086597;28;19956;-69
2023/10/28 01:26:38;;;;;;;;;;;9.50;99.90;;;;;;5086077;28;19979;-70
2023/10/28 01:29:05;;;;;;;;;;;9.50;99.90;;;;;;5085352;28;19988;-70
2023/10/28 01:31:32;;;;;;;;;;;9.40;99.90;;;;;;5085767;28;19928;-70
2023/10/28 01:33:58;;;;;;;;;;;9.40;99.90;;;;;;5086103;28;19927;-70
2023/10/28 01:36:25;;;;;;;;;;;9.40;99.90;;;;;;5086237;28;19927;-70
2023/10/28 01:38:53;;;;;;;;;;;9.40;99.90;;;;;;5084605;28;19987;-70
2023/10/28 01:41:20;;;;;;;;;;;9.40;99.90;;;;;;5086304;28;19967;-69
2023/10/28 01:43:46;;;;;;;;;;;9.40;99.90;;;;;;5085894;28;20252;-70
2023/10/28 01:46:13;;;;;;;;;;;9.40;99.90;;;;;;5085966;28;19921;-70
2023/10/28 01:48:41;;;;;;;;;;;9.40;99.90;;;;;;5085040;28;20265;-70
2023/10/28 01:51:08;;;;;;;;;;;9.40;99.90;;;;;;5085553;28;20222;-70
2023/10/28 01:53:35;;;;;;;;;;;9.40;99.90;;;;;;5085796;28;19943;-70
2023/10/28 01:56:03;;;;;;;;;;;9.40;99.90;;;;;;5085084;28;19980;-70
2023/10/28 01:58:32;;;;;;;;;;;9.40;99.90;;;;;;5084429;28;20260;-70
2023/10/28 02:00:59;;;;;;;;;;;9.40;99.90;;;;;;5085679;28;19962;-70
2023/10/28 02:03:25;;;;;;;;;;;9.40;99.90;;;;;;5085658;28;19951;-70
2023/10/28 02:05:52;;;;;;;;;;;9.40;99.90;;;;;;5084873;28;20184;-70
2023/10/28 02:08:19;;;;;;;;;;;9.40;99.90;;;;;;5084742;28;19955;-72
2023/10/28 02:10:45;;;;;;;;;;;9.40;99.90;;;;;;5085561;28;20109;-71
2023/10/28 02:13:13;;;;;;;;;;;9.40;99.90;;;;;;5085433;28;19964;-70
2023/10/28 02:15:42;;;;;;;;;;;9.30;99.90;;;;;;5085429;28;19920;-70
2023/10/28 02:18:09;;;;;;;;;;;9.30;99.90;;;;;;5084486;28;20153;-70
2023/10/28 02:20:36;;;;;;;;;;;9.30;99.90;;;;;;5085330;28;19983;-70
2023/10/28 02:23:04;;;;;;;;;;;9.30;99.90;;;;;;5085430;28;19958;-70
2023/10/28 02:25:30;;;;;;;;;;;9.30;99.90;;;;;;5085257;28;20206;-70
2023/10/28 02:27:57;;;;;;;;;;;9.30;99.90;;;;;;5075980;28;20167;-69
2023/10/28 02:30:25;;;;;;;;;;;9.40;99.90;;;;;;5085367;28;19921;-70
2023/10/28 02:32:53;;;;;;;;;;;9.40;99.90;;;;;;5083075;28;19934;-70
2023/10/28 02:35:20;;;;;;;;;;;9.40;99.90;;;;;;5084751;28;19962;-70
2023/10/28 02:37:47;;;;;;;;;;;9.40;99.90;;;;;;5084106;28;19963;-69
2023/10/28 02:40:14;;;;;;;;;;;9.40;99.90;;;;;;5085106;28;20110;-70
2023/10/28 02:42:41;;;;;;;;;;;9.40;99.90;;;;;;5084795;28;20202;-70
2023/10/28 02:45:09;;;;;;;;;;;9.40;99.90;;;;;;5085196;28;19921;-70
2023/10/28 02:47:37;;;;;;;;;;;9.40;99.90;;;;;;5084296;28;19987;-70
2023/10/28 02:50:04;;;;;;;;;;;9.40;99.90;;;;;;5084356;28;20234;-70
2023/10/28 02:52:31;;;;;;;;;;;9.40;99.90;;;;;;5084655;28;20127;-70
2023/10/28 02:54:57;;;;;;;;;;;9.40;99.90;;;;;;5076092;28;20242;-70
2023/10/28 02:57:24;;;;;;;;;;;9.40;99.90;;;;;;5084384;28;19920;-70
2023/10/28 02:59:51;;;;;;;;;;;9.40;99.90;;;;;;5079632;28;19996;-70
2023/10/28 03:02:17;;;;;;;;;;;9.40;99.90;;;;;;5084800;28;19920;-70
2023/10/28 03:04:45;;;;;;;;;;;9.40;99.90;;;;;;5084636;28;20091;-70
2023/10/28 03:07:12;;;;;;;;;;;9.40;99.90;;;;;;5082734;28;19963;-70
2023/10/28 03:09:38;;;;;;;;;;;9.40;99.90;;;;;;5083886;28;19975;-69
2023/10/28 03:12:05;;;;;;;;;;;9.40;99.90;;;;;;5084249;28;19926;-70
2023/10/28 03:14:32;;;;;;;;;;;9.40;99.90;;;;;;5084009;28;19952;-69
2023/10/28 03:16:59;;;;;;;;;;;9.40;99.90;;;;;;5083939;28;19927;-70
2023/10/28 03:19:25;;;;;;;;;;;9.40;99.90;;;;;;5083314;28;20125;-70
2023/10/28 03:21:53;;;;;;;;;;;9.40;99.90;;;;;;5084200;28;19928;-69
2023/10/28 03:24:20;;;;;;;;;;;9.40;99.90;;;;;;5084129;28;19942;-70
2023/10/28 03:26:47;;;;;;;;;;;9.40;99.90;;;;;;5083473;28;19987;-70
2023/10/28 03:29:13;;;;;;;;;;;9.40;99.90;;;;;;5082900;28;19926;-70
2023/10/28 03:31:40;;;;;;;;;;;9.40;99.90;;;;;;5083618;28;20217;-70
2023/10/28 03:34:07;;;;;;;;;;;9.30;99.90;;;;;;5083839;28;19921;-69
2023/10/28 03:36:33;;;;;;;;;;;9.30;99.90;;;;;;5083589;28;19920;-70
2023/10/28 03:39:01;;;;;;;;;;;9.30;99.90;;;;;;5083129;28;19921;-70
2023/10/28 03:41:28;;;;;;;;;;;9.30;99.90;;;;;;5083849;28;19936;-70
2023/10/28 03:43:55;;;;;;;;;;;9.30;99.90;;;;;;5083626;28;20146;-69
2023/10/28 03:46:21;;;;;;;;;;;9.20;99.90;;;;;;5083611;28;19987;-70
2023/10/28 03:48:48;;;;;;;;;;;9.20;99.90;;;;;;5082918;28;19921;-70
2023/10/28 03:51:15;;;;;;;;;;;9.20;99.90;;;;;;5083237;28;20160;-70
2023/10/28 03:53:41;;;;;;;;;;;9.20;99.90;;;;;;5083037;28;19921;-70
2023/10/28 03:56:10;;;;;;;;;;;9.20;99.90;;;;;;5083506;28;19987;-70
2023/10/28 03:58:36;;;;;;;;;;;9.20;99.90;;;;;;5082258;28;20248;-70
2023/10/28 04:01:03;;;;;;;;;;;9.20;99.90;;;;;;5083167;28;19948;-70
2023/10/28 04:03:30;;;;;;;;;;;9.20;99.90;;;;;;5083731;28;19988;-70
2023/10/28 04:05:56;;;;;;;;;;;9.20;99.90;;;;;;5083454;28;19927;-70
2023/10/28 04:08:23;;;;;;;;;;;9.20;99.90;;;;;;5082090;28;19988;-70
2023/10/28 04:10:49;;;;;;;;;;;9.20;99.90;;;;;;5082963;28;19920;-70
2023/10/28 04:13:18;;;;;;;;;;;9.20;99.90;;;;;;5083059;28;19924;-69
2023/10/28 04:15:45;;;;;;;;;;;9.20;99.90;;;;;;5082966;28;19920;-70
2023/10/28 04:18:12;;;;;;;;;;;9.30;99.90;;;;;;5081844;28;19954;-70
2023/10/28 04:20:39;;;;;;;;;;;9.30;99.90;;;;;;5083125;28;19927;-70
2023/10/28 04:23:06;;;;;;;;;;;9.20;99.90;;;;;;5083375;28;19920;-71
2023/10/28 04:25:33;;;;;;;;;;;9.30;99.90;;;;;;5083136;28;19927;-70
2023/10/28 04:27:59;;;;;;;;;;;9.30;99.90;;;;;;5082045;28;19963;-70
2023/10/28 04:30:27;;;;;;;;;;;9.20;99.90;;;;;;5082951;28;20206;-70
2023/10/28 04:32:54;;;;;;;;;;;9.20;99.90;;;;;;5082911;28;20276;-70
2023/10/28 04:35:21;;;;;;;;;;;9.20;99.90;;;;;;5083257;28;19920;-70
2023/10/28 04:37:47;;;;;;;;;;;9.20;99.90;;;;;;5082312;28;20315;-69
2023/10/28 04:40:16;;;;;;;;;;;9.20;99.90;;;;;;5082543;28;20289;-70
2023/10/28 04:42:42;;;;;;;;;;;9.20;99.90;;;;;;5083094;28;19952;-70
2023/10/28 04:45:10;;;;;;;;;;;9.20;99.90;;;;;;5083038;28;19948;-70
2023/10/28 04:47:38;;;;;;;;;;;9.30;99.90;;;;;;5082318;28;19928;-70
2023/10/28 04:50:05;;;;;;;;;;;9.30;99.90;;;;;;5083165;28;19947;-70
2023/10/28 04:52:31;;;;;;;;;;;9.30;99.90;;;;;;5083298;28;19962;-70
2023/10/28 04:54:59;;;;;;;;;;;9.30;99.90;;;;;;5082857;28;19995;-70
2023/10/28 04:57:26;;;;;;;;;;;9.30;99.90;;;;;;5082105;28;19921;-70
2023/10/28 04:59:52;;;;;;;;;;;9.30;99.90;;;;;;5082318;28;19999;-70
2023/10/28 05:02:19;;;;;;;;;;;9.30;99.90;;;;;;5082715;28;20223;-70
2023/10/28 05:04:47;;;;;;;;;;;9.20;99.90;;;;;;5082065;28;19988;-70
2023/10/28 05:07:14;;;;;;;;;;;9.20;99.90;;;;;;5079362;28;19988;-70
2023/10/28 05:09:40;;;;;;;;;;;9.20;99.90;;;;;;5082299;28;19928;-70
2023/10/28 05:12:07;;;;;;;;;;;9.20;99.90;;;;;;5083044;28;19920;-70
2023/10/28 05:14:34;;;;;;;;;;;9.20;99.90;;;;;;5082497;28;20210;-70
2023/10/28 05:17:00;;;;;;;;;;;9.20;99.90;;;;;;5082735;28;19932;-70
2023/10/28 05:19:27;;;;;;;;;;;9.20;99.90;;;;;;5081933;28;20201;-70
2023/10/28 05:21:55;;;;;;;;;;;9.10;99.90;;;;;;5082737;28;19983;-70
2023/10/28 05:24:22;;;;;;;;;;;9.10;99.90;;;;;;5077552;28;19980;-70
2023/10/28 05:26:49;;;;;;;;;;;9.10;99.90;;;;;;5082204;28;19920;-70
2023/10/28 05:29:16;;;;;;;;;;;9.10;99.90;;;;;;5081858;28;19928;-70
2023/10/28 05:31:42;;;;;;;;;;;9.10;99.90;;;;;;5083968;28;20359;-70
2023/10/28 05:34:09;;;;;;;;;;;9.10;99.90;;;;;;5086203;28;19988;-70
2023/10/28 05:36:36;;;;;;;;;;;9.20;99.90;;;;;;5086058;28;20099;-70
2023/10/28 05:39:04;;;;;;;;;;;9.20;99.90;;;;;;5085123;28;19948;-70
2023/10/28 05:41:31;;;;;;;;;;;9.20;99.90;;;;;;5086064;28;19988;-70
2023/10/28 05:43:57;;;;;;;;;;;9.20;99.90;;;;;;5078054;28;19979;-70
2023/10/28 05:46:24;;;;;;;;;;;9.20;99.90;;;;;;5085877;28;19926;-70
2023/10/28 05:48:51;;;;;;;;;;;9.20;99.90;;;;;;5085017;28;20118;-70
2023/10/28 05:51:17;;;;;;;;;;;9.20;99.90;;;;;;5085950;28;19924;-70
2023/10/28 05:53:43;;;;;;;;;;;9.20;99.90;;;;;;5085515;28;19956;-70
2023/10/28 05:56:11;;;;;;;;;;;9.20;99.90;;;;;;5085895;28;19921;-70
2023/10/28 05:58:38;;;;;;;;;;;9.20;99.90;;;;;;5085010;28;20159;-70
2023/10/28 06:01:04;;;;;;;;;;;9.20;99.90;;;;;;5085676;28;19926;-70
2023/10/28 06:03:31;;;;;;;;;;;9.20;99.90;;;;;;5085821;28;19983;-71
2023/10/28 06:05:57;;;;;;;;;;;9.10;99.90;;;;;;5085554;28;19927;-70
2023/10/28 06:08:24;;;;;;;;;;;9.10;99.90;;;;;;5084631;28;19921;-70
2023/10/28 06:10:51;;;;;;;;;;;9.20;99.90;;;;;;5085408;28;19920;-71
2023/10/28 06:13:19;;;;;;;;;;;9.20;99.90;;;;;;5085665;28;19924;-71
2023/10/28 06:15:46;;;;;;;;;;;9.20;99.90;;;;;;5084938;28;20264;-70
2023/10/28 06:18:13;;;;;;;;;;;9.20;99.90;;;;;;5084547;28;20117;-72
2023/10/28 06:20:40;;;;;;;;;;;9.30;99.90;;;;;;5085162;28;19983;-70
2023/10/28 06:23:07;;;;;;;;;;;9.30;99.90;;;;;;5085153;28;19944;-70
2023/10/28 06:25:34;;;;;;;;;;;9.30;99.90;;;;;;5084910;28;20230;-70
2023/10/28 06:28:01;;;;;;;;;;;9.30;99.90;;;;;;5084564;28;19928;-70
2023/10/28 06:30:29;;;;;;;;;;;9.30;99.90;;;;;;5085236;28;19951;-70
2023/10/28 06:32:55;;;;;;;;;;;9.30;99.90;;;;;;5083489;28;19991;-70
2023/10/28 06:35:22;;;;;;;;;;;9.30;99.90;;;;;;5084393;28;19926;-70
2023/10/28 06:37:49;;;;;;;;;;;9.30;99.90;;;;;;5083219;28;19920;-71
2023/10/28 06:40:16;;;;;;;;;;;9.30;99.90;;;;;;5083868;28;19942;-70
2023/10/28 06:42:42;;;;;;;;;;;9.30;99.90;;;;;;5084223;28;20261;-70
2023/10/28 06:45:10;;;;;;;;;;;9.30;99.90;;;;;;5083051;28;19995;-69
2023/10/28 06:47:38;;;;;;;;;;;9.30;99.90;;;;;;5083738;28;19932;-69
2023/10/28 06:50:09;;;;;;;;;;;9.30;99.90;;;;;;5083652;28;19956;-69
2023/10/28 06:52:36;;;;;;;;;;;9.30;99.90;;;;;;5083925;28;19932;-70
2023/10/28 06:55:03;;;;;;;;;;;9.30;99.90;;;;;;5096171;22;20171;-71
2023/10/28 06:57:30;;;;;;;;;;;9.40;99.90;;;;;;5077981;28;19952;-71
2023/10/28 06:59:57;;;;;;;;;;;9.40;99.90;;;;;;5084082;28;19951;-71
2023/10/28 07:02:24;;;;;;;;;;;9.50;99.90;;;;;;5084229;28;19928;-71
2023/10/28 07:04:52;;;;;;;;;;;9.50;99.90;;;;;;5083881;28;19920;-71
2023/10/28 07:07:18;;;;;;;;;;;9.50;99.90;;;;;;5084234;28;19932;-72
2023/10/28 07:09:45;;;;;;;;;;;9.50;99.90;;;;;;5075354;28;19980;-71
2023/10/28 07:12:12;;;;;;;;;;;9.60;99.90;;;;;;5070670;28;19929;-71
2023/10/28 07:14:39;;;;;;;;;;;9.60;99.90;;;;;;5072070;28;19991;-71
2023/10/28 07:17:05;;;;;;;;;;;9.60;99.90;;;;;;5068666;28;19983;-70
2023/10/28 07:19:32;;;;;;;;;;;9.70;99.90;;;;;;5065625;28;19990;-71
2023/10/28 07:22:00;;;;;;;;;;;9.70;99.90;;;;;;5055735;28;20007;-71
2023/10/28 07:24:26;;;;;;;;;;;9.70;99.90;;;;;;5063836;28;19988;-71
2023/10/28 07:26:53;;;;;;;;;;;9.80;99.90;;;;;;5056844;28;19928;-71
2023/10/28 07:29:20;;;;;;;;;;;9.90;99.90;;;;;;5073202;28;20011;-71
2023/10/28 07:31:47;;;;;;;;;;;9.90;99.90;;;;;;5083170;28;19991;-71
2023/10/28 07:34:14;;;;;;;;;;;9.90;99.90;;;;;;5069708;28;19920;-71
2023/10/28 07:36:41;;;;;;;;;;;9.90;99.90;;;;;;5063506;28;19971;-71
2023/10/28 07:39:09;;;;;;;;;;;10.00;99.90;;;;;;5063585;28;19993;-71
2023/10/28 07:41:35;;;;;;;;;;;10.00;99.90;;;;;;5063322;28;19928;-71
2023/10/28 07:44:03;;;;;;;;;;;10.00;99.90;;;;;;5067273;28;19951;-71
2023/10/28 07:46:30;;;;;;;;;;;10.00;99.90;;;;;;5069637;28;20254;-71
2023/10/28 07:48:56;;;;;;;;;;;10.10;99.90;;;;;;5062378;28;19921;-73
2023/10/28 07:51:24;;;;;;;;;;;10.10;99.90;;;;;;5068958;28;19928;-71
2023/10/28 07:53:52;;;;;;;;;;;10.10;99.90;;;;;;5059209;28;20249;-71
2023/10/28 07:56:20;;;;;;;;;;;10.20;99.90;;;;;;5063960;28;20118;-70
2023/10/28 07:58:46;;;;;;;;;;;10.20;99.90;;;;;;5063180;28;19986;-70
2023/10/28 08:01:14;;;;;;;;;;;10.20;99.90;;;;;;5063633;28;20234;-72
2023/10/28 08:03:43;;;;;;;;;;;10.20;99.90;;;;;;5063459;28;19920;-71
2023/10/28 08:06:10;;;;;;;;;;;10.30;99.90;;;;;;5063040;28;19988;-71
2023/10/28 08:08:37;;;;;;;;;;;10.30;99.90;;;;;;5063660;28;19984;-73
2023/10/28 08:11:05;;;;;;;;;;;10.40;99.90;;;;;;5063130;28;19959;-72
2023/10/28 08:13:33;;;;;;;;;;;10.30;99.90;;;;;;5062795;28;20368;-75
2023/10/28 08:16:01;;;;;;;;;;;10.40;99.90;;;;;;5054991;28;19921;-73
2023/10/28 08:18:30;;;;;;;;;;;10.40;99.90;;;;;;5066880;28;19921;-72
2023/10/28 08:20:57;;;;;;;;;;;10.40;99.90;;;;;;5060603;28;19949;-71
2023/10/28 08:23:23;;;;;;;;;;;10.40;99.90;;;;;;5059902;28;19921;-71
2023/10/28 08:25:50;;;;;;;;;;;10.40;99.90;;;;;;5080251;28;19952;-71
2023/10/28 08:28:17;;;;;;;;;;;10.50;99.90;;;;;;5072504;28;20241;-70
2023/10/28 08:30:46;;;;;;;;;;;10.50;99.90;;;;;;5082642;28;19927;-71
2023/10/28 08:33:12;;;;;;;;;;;10.60;99.90;;;;;;5071633;28;19956;-70
2023/10/28 08:35:39;;;;;;;;;;;10.60;99.90;;;;;;5077929;28;19920;-70
2023/10/28 08:38:06;;;;;;;;;;;10.70;99.90;;;;;;5062682;28;19984;-70
2023/10/28 08:40:32;;;;;;;;;;;10.80;99.90;;;;;;5063138;28;19962;-70
2023/10/28 08:42:59;;;;;;;;;;;10.80;99.90;;;;;;5063264;28;19963;-70
2023/10/28 08:45:26;;;;;;;;;;;10.90;99.90;;;;;;5056792;28;19965;-70
2023/10/28 08:47:55;;;;;;;;;;;10.90;99.90;;;;;;5062315;28;19967;-70
2023/10/28 08:50:23;;;;;;;;;;;11.00;99.90;;;;;;5062686;28;19984;-70
2023/10/28 08:52:51;;;;;;;;;;;11.10;99.90;;;;;;5066956;28;19979;-70
2023/10/28 08:55:20;;;;;;;;;;;11.10;99.90;;;;;;5062623;28;19970;-70
2023/10/28 08:57:46;;;;;;;;;;;11.10;99.90;;;;;;5062409;28;19928;-70
2023/10/28 09:00:15;;;;;;;;;;;11.20;99.90;;;;;;5062789;28;19980;-70
2023/10/28 09:02:45;;;;;;;;;;;11.20;99.90;;;;;;5077497;28;20225;-70
2023/10/28 09:05:14;;;;;;;;;;;11.30;99.90;;;;;;5084597;28;20239;-70
2023/10/28 09:07:41;;;;;;;;;;;11.50;99.90;;;;;;5086339;28;19955;-70
2023/10/28 09:10:08;;;;;;;;;;;11.50;99.90;;;;;;5082195;28;20055;-71
2023/10/28 09:12:36;;;;;;;;;;;11.60;99.90;;;;;;5066177;28;19927;-70
2023/10/28 09:15:03;;;;;;;;;;;11.70;99.90;;;;;;5067289;28;19983;-70
2023/10/28 09:17:30;;;;;;;;;;;11.70;99.90;;;;;;5086307;28;19920;-70
2023/10/28 09:19:57;;;;;;;;;;;11.80;99.90;;;;;;5067331;28;19921;-70
2023/10/28 09:22:25;;;;;;;;;;;11.80;99.90;;;;;;5066175;28;20347;-71
2023/10/28 09:24:53;;;;;;;;;;;11.80;99.90;;;;;;5080945;28;19952;-70
2023/10/28 09:27:21;;;;;;;;;;;11.90;99.90;;;;;;5069140;28;19974;-72
2023/10/28 09:29:48;;;;;;;;;;;11.90;99.90;;;;;;5084474;28;20121;-70
2023/10/28 09:32:18;;;;;;;;;;;12.10;99.90;;;;;;5067658;28;19925;-71
2023/10/28 09:34:44;;;;;;;;;;;12.10;99.90;;;;;;5066098;28;19925;-70
2023/10/28 09:37:12;;;;;;;;;;;12.20;99.90;;;;;;5065761;28;20218;-70
2023/10/28 09:39:43;;;;;;;;;;;12.20;99.90;;;;;;5074842;28;19975;-69
2023/10/28 09:42:12;;;;;;;;;;;12.30;99.90;;;;;;5070011;28;19981;-71
2023/10/28 09:44:39;;;;;;;;;;;12.30;99.90;;;;;;5064491;28;19973;-70
2023/10/28 09:47:07;;;;;;;;;;;12.40;99.90;;;;;;5061689;28;19988;-70
2023/10/28 09:49:34;;;;;;;;;;;12.40;99.90;;;;;;5065652;28;19959;-71
2023/10/28 09:52:06;;;;;;;;;;;12.50;99.90;;;;;;5061170;28;19921;-70
2023/10/28 09:54:34;;;;;;;;;;;12.60;99.90;;;;;;5063585;28;19921;-71
2023/10/28 09:57:03;;;;;;;;;;;12.70;99.90;;;;;;5073517;28;19928;-71
2023/10/28 09:59:31;;;;;;;;;;;12.80;99.90;;;;;;5065401;28;20118;-70
2023/10/28 10:02:06;;;;;;;;;;;12.90;99.90;;;;;;5063904;28;19928;-70
2023/10/28 10:04:36;;;;;;;;;;;13.00;99.90;;;;;;5062153;28;19944;-70
2023/10/28 10:07:03;;;;;;;;;;;13.00;99.90;;;;;;5065453;28;19927;-70
2023/10/28 10:09:40;;;;;;;;;;;13.10;99.90;;;;;;5065902;28;19967;-70
2023/10/28 10:12:08;;;;;;;;;;;13.10;99.90;;;;;;5058791;28;19959;-70
2023/10/28 10:14:37;;;;;;;;;;;13.20;99.90;;;;;;5056738;28;19971;-71
2023/10/28 10:17:09;;;;;;;;;;;13.30;99.90;;;;;;5066402;28;19920;-71
2023/10/28 10:19:36;;;;;;;;;;;13.30;99.90;;;;;;5085064;28;19971;-70
2023/10/28 10:22:03;;;;;;;;;;;13.40;99.90;;;;;;5085258;28;19987;-70
2023/10/28 10:24:30;;;;;;;;;;;13.50;99.90;;;;;;5084599;28;19920;-70
2023/10/28 10:26:57;;;;;;;;;;;13.50;99.90;;;;;;5065158;28;19920;-70
2023/10/28 10:29:28;;;;;;;;;;;13.60;99.90;;;;;;5064698;28;19921;-70
2023/10/28 10:31:56;;;;;;;;;;;13.80;99.90;;;;;;5072275;28;19943;-70
2023/10/28 10:34:32;;;;;;;;;;;13.90;99.90;;;;;;5064845;28;19935;-71
2023/10/28 10:36:59;;;;;;;;;;;14.00;99.90;;;;;;5056963;28;19927;-70
2023/10/28 10:39:26;;;;;;;;;;;14.00;99.90;;;;;;5065035;28;20181;-71
2023/10/28 10:41:54;;;;;;;;;;;14.00;99.90;;;;;;5064922;28;20003;-70
2023/10/28 10:44:21;;;;;;;;;;;13.90;99.90;;;;;;5064242;28;19955;-71
2023/10/28 10:46:50;;;;;;;;;;;13.80;99.90;;;;;;5083134;28;19920;-70
2023/10/28 10:49:16;;;;;;;;;;;13.80;99.90;;;;;;5078503;28;19964;-70
2023/10/28 10:51:45;;;;;;;;;;;13.70;99.90;;;;;;5078385;28;20255;-70
2023/10/28 10:54:11;;;;;;;;;;;13.80;99.90;;;;;;5066488;28;19928;-70
2023/10/28 10:56:38;;;;;;;;;;;13.70;99.90;;;;;;5064455;28;20253;-70
2023/10/28 10:59:04;;;;;;;;;;;13.80;99.90;;;;;;5064431;28;19957;-70
2023/10/28 11:01:31;;;;;;;;;;;13.70;99.90;;;;;;5064599;28;20228;-71
2023/10/28 11:04:02;;;;;;;;;;;13.70;99.90;;;;;;5068338;28;20148;-70
2023/10/28 11:06:28;;;;;;;;;;;13.70;99.90;;;;;;5075983;28;19955;-70
2023/10/28 11:08:55;;;;;;;;;;;13.80;99.90;;;;;;5083712;28;19956;-70
2023/10/28 11:11:22;;;;;;;;;;;13.80;99.90;;;;;;5084470;28;19943;-70
2023/10/28 11:13:48;;;;;;;;;;;13.90;99.90;;;;;;5067236;28;19984;-70
2023/10/28 11:16:22;;;;;;;;;;;14.00;99.90;;;;;;5064132;28;19988;-71
2023/10/28 11:18:49;;;;;;;;;;;14.00;99.90;;;;;;5064042;28;19929;-70
2023/10/28 11:21:18;;;;;;;;;;;14.00;99.90;;;;;;5064362;28;19956;-70
2023/10/28 11:23:45;;;;;;;;;;;14.10;99.90;;;;;;5064301;28;19920;-71
2023/10/28 11:26:16;;;;;;;;;;;14.00;99.90;;;;;;5069313;28;19959;-70
2023/10/28 11:28:44;;;;;;;;;;;13.90;99.90;;;;;;5081021;28;19920;-70
2023/10/28 11:31:11;;;;;;;;;;;14.00;99.90;;;;;;5064350;28;19995;-71
2023/10/28 11:33:38;;;;;;;;;;;13.90;99.90;;;;;;5064179;28;19920;-70
2023/10/28 11:36:05;;;;;;;;;;;13.90;99.90;;;;;;5063745;28;19988;-70
2023/10/28 11:38:33;;;;;;;;;;;13.90;99.90;;;;;;5071938;28;20180;-71
2023/10/28 11:41:04;;;;;;;;;;;13.90;99.90;;;;;;5079567;28;19925;-70
2023/10/28 11:43:31;;;;;;;;;;;13.90;99.90;;;;;;5079957;28;19924;-70
2023/10/28 11:45:58;;;;;;;;;;;13.90;99.90;;;;;;5083633;28;19963;-71
2023/10/28 11:48:24;;;;;;;;;;;14.00;99.90;;;;;;5083188;28;20113;-71
2023/10/28 11:50:51;;;;;;;;;;;14.10;99.90;;;;;;5071717;28;19929;-69
2023/10/28 11:53:22;;;;;;;;;;;14.10;99.90;;;;;;5083236;28;20221;-70
2023/10/28 11:55:50;;;;;;;;;;;14.10;99.90;;;;;;5082783;28;20376;-71
2023/10/28 11:58:17;;;;;;;;;;;14.10;99.90;;;;;;5083106;28;19983;-70
2023/10/28 12:00:46;;;;;;;;;;;14.10;99.90;;;;;;5083467;28;19921;-70
2023/10/28 12:03:13;;;;;;;;;;;14.00;99.90;;;;;;5083337;28;19928;-70
2023/10/28 12:05:40;;;;;;;;;;;13.90;99.90;;;;;;5082873;28;19924;-70
2023/10/28 12:08:07;;;;;;;;;;;13.90;99.90;;;;;;5082885;28;19928;-71
2023/10/28 12:10:34;;;;;;;;;;;13.80;99.90;;;;;;5082871;28;20004;-70
2023/10/28 12:13:02;;;;;;;;;;;13.70;99.90;;;;;;5083210;28;19952;-71
2023/10/28 12:15:29;;;;;;;;;;;13.70;99.90;;;;;;5070075;28;19956;-70
2023/10/28 12:17:55;;;;;;;;;;;13.70;99.90;;;;;;5049262;28;20273;-70
2023/10/28 12:20:22;;;;;;;;;;;13.80;99.90;;;;;;5070038;28;19952;-70
2023/10/28 12:22:48;;;;;;;;;;;13.80;99.90;;;;;;5083063;28;19956;-70
2023/10/28 12:25:15;;;;;;;;;;;13.70;99.90;;;;;;5074615;28;19956;-70
2023/10/28 12:27:42;;;;;;;;;;;13.70;99.90;;;;;;5082792;28;19997;-71
2023/10/28 12:30:10;;;;;;;;;;;13.70;99.90;;;;;;5073915;28;19939;-71
2023/10/28 12:32:37;;;;;;;;;;;13.70;99.90;;;;;;5071399;28;19952;-70
2023/10/28 12:35:04;;;;;;;;;;;13.70;99.90;;;;;;5063383;28;19999;-71
2023/10/28 12:37:30;;;;;;;;;;;13.70;99.90;;;;;;5063090;28;19960;-70
2023/10/28 12:39:57;;;;;;;;;;;13.70;99.90;;;;;;5062805;28;19927;-70
2023/10/28 12:42:24;;;;;;;;;;;13.70;99.90;;;;;;5063027;28;19992;-70
2023/10/28 12:44:50;;;;;;;;;;;13.70;99.90;;;;;;5062590;28;19983;-71
2023/10/28 12:47:18;;;;;;;;;;;13.80;99.90;;;;;;5072656;28;20168;-70
2023/10/28 12:49:46;;;;;;;;;;;13.80;99.90;;;;;;5055734;28;19968;-70
2023/10/28 12:52:13;;;;;;;;;;;13.70;99.90;;;;;;5061521;28;19921;-71
2023/10/28 12:54:39;;;;;;;;;;;13.70;99.90;;;;;;5078025;28;19959;-70
2023/10/28 12:57:07;;;;;;;;;;;13.70;99.90;;;;;;5062847;28;19943;-71
2023/10/28 12:59:34;;;;;;;;;;;13.70;99.90;;;;;;5062091;28;19928;-70
2023/10/28 13:02:01;;;;;;;;;;;13.70;99.90;;;;;;5062613;28;19925;-70
2023/10/28 13:04:28;;;;;;;;;;;13.70;99.90;;;;;;5062793;28;19956;-70
2023/10/28 13:06:55;;;;;;;;;;;13.60;99.90;;;;;;5062755;28;19952;-70
2023/10/28 13:09:23;;;;;;;;;;;13.60;99.90;;;;;;5057710;28;19921;-71
2023/10/28 13:11:49;;;;;;;;;;;13.60;99.90;;;;;;5062892;28;19928;-70
2023/10/28 13:14:18;;;;;;;;;;;13.60;99.90;;;;;;5062470;28;19921;-70
2023/10/28 13:16:45;;;;;;;;;;;13.60;99.90;;;;;;5065844;28;20099;-70
2023/10/28 13:19:12;;;;;;;;;;;13.60;99.90;;;;;;5062241;28;19928;-71
2023/10/28 13:21:41;;;;;;;;;;;13.60;99.90;;;;;;5096881;22;20172;-74
2023/10/28 13:24:07;;;;;;;;;;;13.60;99.90;;;;;;5075999;28;19921;-76
2023/10/28 13:26:35;;;;;;;;;;;13.60;99.90;;;;;;5082684;28;20217;-75
2023/10/28 13:29:02;;;;;;;;;;;13.60;99.90;;;;;;5082446;28;19921;-74
2023/10/28 13:31:28;;;;;;;;;;;13.60;99.90;;;;;;5066448;28;19995;-74
2023/10/28 13:33:55;;;;;;;;;;;13.60;99.90;;;;;;5062828;28;19980;-74
2023/10/28 13:36:22;;;;;;;;;;;13.60;99.90;;;;;;5062780;28;20174;-76
2023/10/28 13:38:50;;;;;;;;;;;13.60;99.90;;;;;;5063518;28;19921;-74
2023/10/28 13:41:17;;;;;;;;;;;13.50;99.90;;;;;;5062852;28;20170;-74
2023/10/28 13:43:44;;;;;;;;;;;13.50;99.90;;;;;;5062816;28;19963;-74
2023/10/28 13:46:09;;;;;;;;;;;13.50;99.90;;;;;;5062682;28;19956;-74
2023/10/28 13:48:36;;;;;;;;;;;13.50;99.90;;;;;;5062537;28;19924;-76
2023/10/28 13:51:02;;;;;;;;;;;13.40;99.90;;;;;;5062672;28;19927;-74
2023/10/28 13:53:29;;;;;;;;;;;13.40;99.90;;;;;;5066296;28;20005;-73
2023/10/28 13:55:58;;;;;;;;;;;13.50;99.90;;;;;;5066095;28;20128;-74
2023/10/28 13:58:26;;;;;;;;;;;13.40;99.90;;;;;;5065352;28;19960;-74
2023/10/28 14:00:54;;;;;;;;;;;13.30;99.90;;;;;;5065952;28;19991;-74
2023/10/28 14:03:20;;;;;;;;;;;13.30;99.90;;;;;;5066145;28;19967;-74
2023/10/28 14:05:47;;;;;;;;;;;13.30;99.90;;;;;;5065821;28;19921;-74
2023/10/28 14:08:15;;;;;;;;;;;13.20;99.90;;;;;;5065651;28;19959;-74
2023/10/28 14:10:46;;;;;;;;;;;13.20;99.90;;;;;;5065865;28;19984;-74
2023/10/28 14:13:14;;;;;;;;;;;13.20;99.90;;;;;;5065740;28;19920;-74
2023/10/28 14:15:42;;;;;;;;;;;13.20;99.90;;;;;;5065960;28;20213;-74
2023/10/28 14:18:11;;;;;;;;;;;13.20;99.90;;;;;;5065498;28;19925;-74
2023/10/28 14:20:38;;;;;;;;;;;13.10;99.90;;;;;;5065093;28;19920;-74
2023/10/28 14:23:04;;;;;;;;;;;13.10;99.90;;;;;;5065491;28;20069;-74